createdAt,value
2019-06-01T00:00:11.001Z,15.70
2019-06-01T00:02:32.018Z,15.70
2019-06-01T00:05:00.432Z,15.70
2019-06-01T00:07:28.824Z,15.60
2019-06-01T00:09:57.253Z,15.70
2019-06-01T00:12:25.641Z,15.60
2019-06-01T00:14:54.038Z,15.60
2019-06-01T00:17:22.452Z,15.50
2019-06-01T00:19:50.857Z,15.50
2019-06-01T00:22:19.282Z,15.50
2019-06-01T00:24:48.042Z,15.50
2019-06-01T00:27:16.592Z,15.40
2019-06-01T00:29:44.981Z,15.40
2019-06-01T00:32:13.402Z,15.30
2019-06-01T00:34:41.888Z,15.20
2019-06-01T00:37:10.289Z,15.20
2019-06-01T00:39:38.720Z,15.10
2019-06-01T00:42:07.117Z,15.10
2019-06-01T00:44:35.525Z,15.10
2019-06-01T00:47:03.957Z,15.10
2019-06-01T00:49:32.420Z,15.00
2019-06-01T00:52:00.852Z,15.00
2019-06-01T00:54:29.364Z,14.90
2019-06-01T00:56:57.756Z,14.90
2019-06-01T00:59:26.153Z,14.90
2019-06-01T01:01:54.576Z,14.90
2019-06-01T01:04:22.980Z,14.90
2019-06-01T01:06:52.709Z,14.90
2019-06-01T01:09:21.297Z,14.80
2019-06-01T01:11:51.131Z,14.80
2019-06-01T01:14:19.656Z,14.80
2019-06-01T01:16:48.058Z,14.80
2019-06-01T01:19:16.458Z,14.80
2019-06-01T01:21:45.956Z,14.70
2019-06-01T01:24:14.441Z,14.70
2019-06-01T01:26:42.897Z,14.60
2019-06-01T01:29:11.309Z,14.60
2019-06-01T01:31:39.710Z,14.60
2019-06-01T01:34:08.314Z,14.60
2019-06-01T01:36:36.707Z,14.60
2019-06-01T01:39:07.358Z,14.50
2019-06-01T01:41:35.879Z,14.50
2019-06-01T01:44:04.618Z,14.50
2019-06-01T01:46:33.016Z,14.50
2019-06-01T01:49:02.622Z,14.40
2019-06-01T01:51:31.038Z,14.40
2019-06-01T01:53:59.460Z,14.30
2019-06-01T01:56:27.910Z,14.30
2019-06-01T01:58:56.514Z,14.20
2019-06-01T02:01:24.958Z,14.20
2019-06-01T02:03:54.027Z,14.20
2019-06-01T02:06:23.531Z,14.20
2019-06-01T02:08:53.375Z,14.20
2019-06-01T02:11:22.088Z,14.20
2019-06-01T02:13:51.507Z,14.10
2019-06-01T02:16:20.098Z,14.10
2019-06-01T02:18:48.586Z,14.10
2019-06-01T02:21:16.989Z,14.10
2019-06-01T02:23:45.425Z,14.10
2019-06-01T02:26:13.827Z,14.00
2019-06-01T02:28:42.245Z,14.00
2019-06-01T02:31:10.708Z,14.00
2019-06-01T02:33:39.099Z,13.90
2019-06-01T02:36:07.517Z,13.90
2019-06-01T02:38:35.966Z,13.90
2019-06-01T02:41:05.734Z,13.90
2019-06-01T02:43:34.297Z,13.90
2019-06-01T02:46:03.398Z,13.80
2019-06-01T02:48:32.899Z,13.80
2019-06-01T02:51:01.847Z,13.70
2019-06-01T02:53:30.589Z,13.70
2019-06-01T02:55:59.944Z,13.70
2019-06-01T02:58:28.443Z,13.70
2019-06-01T03:01:07.054Z,13.70
2019-06-01T03:03:35.593Z,13.70
2019-06-01T03:06:05.969Z,13.70
2019-06-01T03:08:35.637Z,13.70
2019-06-01T03:11:06.030Z,13.70
2019-06-01T03:13:37.255Z,13.70
2019-06-01T03:16:08.921Z,13.70
2019-06-01T03:18:39.281Z,13.70
2019-06-01T03:21:09.134Z,13.60
2019-06-01T03:23:40.685Z,13.60
2019-06-01T03:26:12.561Z,13.60
2019-06-01T03:28:43.559Z,13.50
2019-06-01T03:31:13.301Z,13.50
2019-06-01T03:33:41.852Z,13.50
2019-06-01T03:36:10.362Z,13.40
2019-06-01T03:38:38.921Z,13.40
2019-06-01T03:41:08.221Z,13.40
2019-06-01T03:43:36.838Z,13.40
2019-06-01T03:46:06.678Z,13.40
2019-06-01T03:48:35.256Z,13.40
2019-06-01T03:51:05.593Z,13.40
2019-06-01T03:53:34.259Z,13.40
2019-06-01T03:56:03.290Z,13.40
2019-06-01T03:58:31.773Z,13.50
2019-06-01T04:01:00.900Z,13.50
2019-06-01T04:03:29.409Z,13.50
2019-06-01T04:05:57.825Z,13.60
2019-06-01T04:08:26.271Z,13.70
2019-06-01T04:10:54.665Z,13.70
2019-06-01T04:13:23.093Z,13.80
2019-06-01T04:15:51.550Z,13.80
2019-06-01T04:18:19.951Z,13.80
2019-06-01T04:20:48.354Z,13.90
2019-06-01T04:23:16.804Z,13.90
2019-06-01T04:25:45.211Z,14.00
2019-06-01T04:28:13.615Z,14.10
2019-06-01T04:30:42.079Z,14.10
2019-06-01T04:33:11.050Z,14.20
2019-06-01T04:35:39.450Z,14.30
2019-06-01T04:38:09.031Z,14.30
2019-06-01T04:40:37.678Z,14.40
2019-06-01T04:43:06.078Z,14.40
2019-06-01T04:45:34.597Z,14.50
2019-06-01T04:48:04.246Z,14.60
2019-06-01T04:50:33.289Z,14.60
2019-06-01T04:53:01.737Z,14.70
2019-06-01T04:55:30.152Z,14.70
2019-06-01T04:57:58.564Z,14.80
2019-06-01T05:00:28.018Z,14.90
2019-06-01T05:03:04.881Z,15.00
2019-06-01T05:05:26.716Z,15.10
2019-06-01T05:07:55.150Z,15.10
2019-06-01T05:10:23.614Z,15.10
2019-06-01T05:12:52.031Z,15.10
2019-06-01T05:15:21.152Z,15.20
2019-06-01T05:17:49.556Z,15.20
2019-06-01T05:20:18.190Z,15.30
2019-06-01T05:22:46.634Z,15.30
2019-06-01T05:25:15.357Z,15.40
2019-06-01T05:27:43.990Z,15.50
2019-06-01T05:30:13.702Z,15.60
2019-06-01T05:32:42.269Z,15.70
2019-06-01T05:35:11.791Z,15.80
2019-06-01T05:37:40.329Z,15.90
2019-06-01T05:40:10.531Z,16.00
2019-06-01T05:42:39.081Z,16.10
2019-06-01T05:45:09.151Z,16.20
2019-06-01T05:47:37.811Z,16.30
2019-06-01T05:50:10.671Z,16.30
2019-06-01T05:52:39.364Z,16.30
2019-06-01T05:55:08.276Z,16.40
2019-06-01T05:57:36.721Z,16.40
2019-06-01T06:00:10.976Z,16.40
2019-06-01T06:02:39.451Z,16.40
2019-06-01T06:05:10.631Z,16.40
2019-06-01T06:07:39.147Z,16.50
2019-06-01T06:10:09.356Z,16.60
2019-06-01T06:12:37.790Z,16.70
2019-06-01T06:15:08.010Z,16.90
2019-06-01T06:17:36.457Z,17.00
2019-06-01T06:20:06.638Z,17.20
2019-06-01T06:22:35.318Z,17.30
2019-06-01T06:25:04.469Z,17.40
2019-06-01T06:27:32.852Z,17.50
2019-06-01T06:30:01.618Z,17.60
2019-06-01T06:32:30.029Z,17.70
2019-06-01T06:34:58.427Z,17.80
2019-06-01T06:37:26.872Z,17.90
2019-06-01T06:39:55.528Z,18.00
2019-06-01T06:42:24.434Z,18.20
2019-06-01T06:44:53.047Z,18.20
2019-06-01T06:47:21.513Z,18.30
2019-06-01T06:49:49.912Z,18.40
2019-06-01T06:52:19.392Z,18.50
2019-06-01T06:54:47.967Z,18.60
2019-06-01T06:57:16.365Z,18.80
2019-06-01T06:59:44.782Z,18.90
2019-06-01T07:02:13.211Z,19.00
2019-06-01T07:04:41.605Z,19.10
2019-06-01T07:07:10.019Z,19.30
2019-06-01T07:09:38.475Z,19.40
2019-06-01T07:12:06.877Z,19.50
2019-06-01T07:14:35.306Z,19.60
2019-06-01T07:17:03.732Z,19.60
2019-06-01T07:19:32.127Z,19.70
2019-06-01T07:22:00.849Z,19.80
2019-06-01T07:24:29.730Z,19.90
2019-06-01T07:26:58.206Z,20.00
2019-06-01T07:29:26.766Z,20.00
2019-06-01T07:31:55.201Z,20.10
2019-06-01T07:34:37.257Z,20.10
2019-06-01T07:36:53.797Z,20.10
2019-06-01T07:39:22.624Z,20.20
2019-06-01T07:41:51.291Z,20.20
2019-06-01T07:44:20.900Z,20.30
2019-06-01T07:46:49.477Z,20.40
2019-06-01T07:49:17.986Z,20.50
2019-06-01T07:51:46.845Z,20.60
2019-06-01T07:54:15.661Z,20.70
2019-06-01T07:56:44.381Z,20.80
2019-06-01T07:59:12.822Z,20.90
2019-06-01T08:01:41.232Z,21.00
2019-06-01T08:04:09.670Z,21.00
2019-06-01T08:06:44.368Z,21.20
2019-06-01T08:09:08.308Z,21.20
2019-06-01T08:11:36.744Z,21.30
2019-06-01T08:14:05.951Z,21.40
2019-06-01T08:16:34.355Z,21.50
2019-06-01T08:19:02.819Z,21.70
2019-06-01T08:21:32.276Z,21.70
2019-06-01T08:24:00.878Z,21.90
2019-06-01T08:26:30.534Z,22.00
2019-06-01T08:28:59.124Z,22.10
2019-06-01T08:31:28.717Z,22.30
2019-06-01T08:33:57.251Z,22.40
2019-06-01T08:36:25.723Z,22.50
2019-06-01T08:38:54.159Z,22.60
2019-06-01T08:41:23.411Z,22.60
2019-06-01T08:43:52.172Z,22.60
2019-06-01T08:46:20.635Z,22.80
2019-06-01T08:48:49.079Z,23.00
2019-06-01T08:51:17.491Z,23.20
2019-06-01T08:53:45.937Z,23.40
2019-06-01T08:56:14.352Z,23.50
2019-06-01T08:58:42.809Z,23.60
2019-06-01T09:01:11.206Z,23.80
2019-06-01T09:03:46.111Z,23.90
2019-06-01T09:06:09.753Z,23.90
2019-06-01T09:08:38.219Z,23.90
2019-06-01T09:11:06.618Z,23.90
2019-06-01T09:13:35.504Z,24.00
2019-06-01T09:16:04.289Z,24.20
2019-06-01T09:18:33.697Z,24.30
2019-06-01T09:21:02.230Z,24.50
2019-06-01T09:23:31.595Z,24.70
2019-06-01T09:26:00.184Z,24.80
2019-06-01T09:28:29.820Z,24.80
2019-06-01T09:30:58.393Z,24.90
2019-06-01T09:33:28.078Z,24.90
2019-06-01T09:35:56.726Z,24.90
2019-06-01T09:38:25.139Z,24.90
2019-06-01T09:40:53.590Z,24.90
2019-06-01T09:43:21.989Z,25.00
2019-06-01T09:45:53.173Z,25.10
2019-06-01T09:48:20.578Z,25.20
2019-06-01T09:50:49.017Z,25.30
2019-06-01T09:53:17.413Z,25.40
2019-06-01T09:55:45.874Z,25.40
2019-06-01T09:58:14.512Z,25.50
2019-06-01T10:00:44.049Z,25.60
2019-06-01T10:03:12.780Z,25.70
2019-06-01T10:05:41.563Z,25.80
2019-06-01T10:08:10.046Z,25.90
2019-06-01T10:10:38.501Z,25.90
2019-06-01T10:13:07.800Z,26.00
2019-06-01T10:15:36.633Z,26.00
2019-06-01T10:18:05.946Z,26.00
2019-06-01T10:20:34.771Z,26.00
2019-06-01T10:23:03.274Z,26.00
2019-06-01T10:25:32.430Z,26.00
2019-06-01T10:28:01.088Z,26.00
2019-06-01T10:30:29.599Z,26.00
2019-06-01T10:32:58.002Z,25.90
2019-06-01T10:35:26.461Z,26.00
2019-06-01T10:37:55.097Z,26.20
2019-06-01T10:40:23.674Z,26.40
2019-06-01T10:42:52.226Z,26.50
2019-06-01T10:45:20.733Z,26.70
2019-06-01T10:47:49.235Z,26.60
2019-06-01T10:50:18.059Z,26.50
2019-06-01T10:52:46.477Z,26.30
2019-06-01T10:55:16.200Z,26.40
2019-06-01T10:57:44.676Z,26.60
2019-06-01T11:00:13.848Z,26.80
2019-06-01T11:02:43.327Z,27.00
2019-06-01T11:05:12.655Z,27.20
2019-06-01T11:07:41.146Z,27.10
2019-06-01T11:10:10.808Z,27.10
2019-06-01T11:12:39.410Z,27.10
2019-06-01T11:15:09.813Z,27.40
2019-06-01T11:17:39.286Z,27.20
2019-06-01T11:20:08.559Z,27.20
2019-06-01T11:22:37.489Z,27.50
2019-06-01T11:25:06.638Z,27.70
2019-06-01T11:27:35.702Z,27.90
2019-06-01T11:30:10.218Z,28.00
2019-06-01T11:32:39.966Z,27.90
2019-06-01T11:35:09.466Z,27.90
2019-06-01T11:37:38.425Z,27.80
2019-06-01T11:40:08.031Z,27.80
2019-06-01T11:42:36.942Z,27.90
2019-06-01T11:45:07.844Z,28.00
2019-06-01T11:47:38.923Z,28.00
2019-06-01T11:50:08.315Z,28.00
2019-06-01T11:52:37.181Z,28.20
2019-06-01T11:55:09.185Z,28.50
2019-06-01T11:57:37.688Z,28.60
2019-06-01T12:00:11.586Z,28.80
2019-06-01T12:02:40.015Z,28.90
2019-06-01T12:05:09.944Z,29.10
2019-06-01T12:07:39.875Z,29.30
2019-06-01T12:10:09.143Z,29.60
2019-06-01T12:12:38.211Z,29.60
2019-06-01T12:15:07.382Z,29.60
2019-06-01T12:17:36.584Z,29.80
2019-06-01T12:20:08.561Z,29.60
2019-06-01T12:22:37.026Z,29.80
2019-06-01T12:25:06.272Z,30.00
2019-06-01T12:27:34.730Z,30.30
2019-06-01T12:30:06.083Z,30.60
2019-06-01T12:32:34.519Z,30.80
2019-06-01T12:35:03.804Z,30.90
2019-06-01T12:37:52.382Z,31.00
2019-06-01T12:40:02.664Z,31.30
2019-06-01T12:42:31.089Z,31.60
2019-06-01T12:44:59.509Z,31.60
2019-06-01T12:47:27.951Z,31.40
2019-06-01T12:49:56.580Z,31.40
2019-06-01T12:52:25.353Z,31.90
2019-06-01T12:54:53.922Z,32.80
2019-06-01T12:57:22.432Z,32.90
2019-06-01T12:59:51.221Z,33.40
2019-06-01T13:02:19.885Z,34.10
2019-06-01T13:04:49.111Z,34.50
2019-06-01T13:07:17.835Z,34.90
2019-06-01T13:09:46.318Z,35.40
2019-06-01T13:12:14.792Z,35.70
2019-06-01T13:14:43.261Z,35.10
2019-06-01T13:17:11.794Z,35.00
2019-06-01T13:19:41.303Z,36.00
2019-06-01T13:22:09.805Z,37.00
2019-06-01T13:24:38.244Z,37.20
2019-06-01T13:27:06.710Z,37.40
2019-06-01T13:29:35.173Z,37.70
2019-06-01T13:32:03.644Z,38.50
2019-06-01T13:34:34.206Z,38.50
2019-06-01T13:37:02.206Z,38.30
2019-06-01T13:39:30.642Z,38.90
2019-06-01T13:41:59.052Z,38.90
2019-06-01T13:44:27.502Z,38.80
2019-06-01T13:46:55.894Z,38.30
2019-06-01T13:49:24.366Z,38.80
2019-06-01T13:51:52.765Z,39.10
2019-06-01T13:54:21.156Z,39.20
2019-06-01T13:56:50.888Z,39.80
2019-06-01T13:59:19.474Z,39.90
2019-06-01T14:01:48.813Z,40.40
2019-06-01T14:04:17.385Z,40.50
2019-06-01T14:06:46.894Z,40.00
2019-06-01T14:09:15.670Z,40.30
2019-06-01T14:11:45.270Z,41.00
2019-06-01T14:14:13.903Z,41.90
2019-06-01T14:16:42.335Z,41.90
2019-06-01T14:19:10.746Z,41.70
2019-06-01T14:21:39.149Z,41.00
2019-06-01T14:24:07.594Z,40.80
2019-06-01T14:26:35.989Z,40.60
2019-06-01T14:29:05.945Z,40.50
2019-06-01T14:31:34.391Z,40.90
2019-06-01T14:34:02.795Z,41.30
2019-06-01T14:36:31.214Z,41.90
2019-06-01T14:38:59.666Z,42.50
2019-06-01T14:41:28.135Z,42.30
2019-06-01T14:43:57.751Z,42.10
2019-06-01T14:46:26.234Z,42.00
2019-06-01T14:48:55.846Z,42.40
2019-06-01T14:51:24.296Z,42.40
2019-06-01T14:53:53.699Z,43.10
2019-06-01T14:56:22.416Z,43.60
2019-06-01T14:58:51.877Z,44.00
2019-06-01T15:01:31.971Z,43.50
2019-06-01T15:03:50.715Z,43.40
2019-06-01T15:06:20.869Z,43.00
2019-06-01T15:09:09.097Z,41.30
2019-06-01T15:11:19.572Z,39.40
2019-06-01T15:13:48.298Z,37.50
2019-06-01T15:16:16.875Z,35.70
2019-06-01T15:18:45.274Z,34.50
2019-06-01T15:21:13.738Z,33.60
2019-06-01T15:23:42.122Z,32.50
2019-06-01T15:26:10.563Z,32.10
2019-06-01T15:28:38.962Z,31.80
2019-06-01T15:31:07.413Z,31.50
2019-06-01T15:33:35.814Z,31.20
2019-06-01T15:36:05.384Z,31.10
2019-06-01T15:38:33.780Z,30.80
2019-06-01T15:41:02.443Z,30.50
2019-06-01T15:43:31.102Z,30.30
2019-06-01T15:45:59.856Z,30.20
2019-06-01T15:48:28.411Z,30.10
2019-06-01T15:51:02.252Z,29.90
2019-06-01T15:53:26.977Z,30.00
2019-06-01T15:55:56.480Z,30.00
2019-06-01T15:58:25.070Z,30.00
2019-06-01T16:00:54.965Z,30.00
2019-06-01T16:03:23.559Z,29.80
2019-06-01T16:05:53.010Z,29.80
2019-06-01T16:08:21.489Z,29.90
2019-06-01T16:10:49.877Z,29.80
2019-06-01T16:13:18.394Z,29.70
2019-06-01T16:15:46.827Z,29.70
2019-06-01T16:18:15.242Z,29.80
2019-06-01T16:20:43.682Z,29.70
2019-06-01T16:23:12.090Z,29.70
2019-06-01T16:25:40.499Z,29.70
2019-06-01T16:28:08.932Z,29.70
2019-06-01T16:30:37.420Z,29.70
2019-06-01T16:33:06.038Z,29.60
2019-06-01T16:35:34.439Z,29.50
2019-06-01T16:38:04.099Z,29.50
2019-06-01T16:40:32.970Z,29.40
2019-06-01T16:43:01.613Z,29.40
2019-06-01T16:45:30.086Z,29.30
2019-06-01T16:47:59.481Z,29.30
2019-06-01T16:50:27.981Z,29.40
2019-06-01T16:52:57.801Z,29.50
2019-06-01T16:55:26.296Z,29.70
2019-06-01T16:57:54.694Z,29.80
2019-06-01T17:00:23.129Z,29.90
2019-06-01T17:02:51.530Z,29.90
2019-06-01T17:05:19.945Z,29.90
2019-06-01T17:07:48.393Z,29.90
2019-06-01T17:10:25.812Z,29.70
2019-06-01T17:12:47.252Z,29.40
2019-06-01T17:15:17.036Z,29.30
2019-06-01T17:17:45.422Z,29.30
2019-06-01T17:20:38.031Z,29.30
2019-06-01T17:23:24.284Z,29.30
2019-06-01T17:25:36.722Z,29.10
2019-06-01T17:28:07.203Z,29.10
2019-06-01T17:30:35.702Z,29.00
2019-06-01T17:33:06.393Z,28.90
2019-06-01T17:35:36.169Z,28.90
2019-06-01T17:38:07.259Z,28.90
2019-06-01T17:40:38.393Z,28.80
2019-06-01T17:43:06.992Z,28.80
2019-06-01T17:45:35.581Z,28.60
2019-06-01T17:48:18.206Z,28.50
2019-06-01T17:50:35.862Z,28.40
2019-06-01T17:53:04.695Z,28.30
2019-06-01T17:55:35.525Z,28.20
2019-06-01T17:58:05.563Z,28.20
2019-06-01T18:00:34.211Z,28.00
2019-06-01T18:03:03.591Z,28.00
2019-06-01T18:05:32.133Z,28.00
2019-06-01T18:08:01.763Z,28.00
2019-06-01T18:10:30.455Z,28.00
2019-06-01T18:12:58.897Z,28.00
2019-06-01T18:15:27.290Z,28.00
2019-06-01T18:17:55.749Z,28.00
2019-06-01T18:20:24.219Z,28.00
2019-06-01T18:22:52.746Z,28.00
2019-06-01T18:25:27.497Z,27.90
2019-06-01T18:27:55.906Z,27.90
2019-06-01T18:30:25.995Z,27.80
2019-06-01T18:32:55.770Z,27.80
2019-06-01T18:35:24.338Z,27.70
2019-06-01T18:37:52.878Z,27.70
2019-06-01T18:40:24.190Z,27.60
2019-06-01T18:42:58.430Z,27.40
2019-06-01T18:45:27.015Z,27.30
2019-06-01T18:47:55.753Z,27.20
2019-06-01T18:50:24.273Z,27.20
2019-06-01T18:52:52.743Z,27.10
2019-06-01T18:55:21.254Z,27.00
2019-06-01T18:57:52.817Z,26.90
2019-06-01T19:00:21.709Z,26.90
2019-06-01T19:02:50.186Z,26.70
2019-06-01T19:05:18.630Z,26.60
2019-06-01T19:07:47.065Z,26.50
2019-06-01T19:10:15.821Z,26.40
2019-06-01T19:12:44.492Z,26.30
2019-06-01T19:15:28.041Z,26.20
2019-06-01T19:17:44.292Z,26.10
2019-06-01T19:20:15.300Z,25.90
2019-06-01T19:22:43.881Z,25.80
2019-06-01T19:25:13.272Z,25.80
2019-06-01T19:27:41.842Z,25.60
2019-06-01T19:30:11.079Z,25.50
2019-06-01T19:32:40.045Z,25.40
2019-06-01T19:35:09.557Z,25.30
2019-06-01T19:37:40.261Z,25.10
2019-06-01T19:40:11.268Z,25.00
2019-06-01T19:42:39.831Z,24.90
2019-06-01T19:45:18.452Z,24.80
2019-06-01T19:47:39.565Z,24.70
2019-06-01T19:50:08.657Z,24.60
2019-06-01T19:52:37.138Z,24.50
2019-06-01T19:55:06.989Z,24.40
2019-06-01T19:57:35.649Z,24.30
2019-06-01T20:00:07.418Z,24.20
2019-06-01T20:02:35.819Z,24.10
2019-06-01T20:05:05.603Z,24.00
2019-06-01T20:07:34.006Z,23.90
2019-06-01T20:10:02.593Z,23.80
2019-06-01T20:12:31.026Z,23.70
2019-06-01T20:14:59.436Z,23.60
2019-06-01T20:17:27.886Z,23.50
2019-06-01T20:19:56.354Z,23.50
2019-06-01T20:22:24.759Z,23.40
2019-06-01T20:24:53.189Z,23.30
2019-06-01T20:27:21.748Z,23.20
2019-06-01T20:29:50.178Z,23.10
2019-06-01T20:32:19.934Z,23.00
2019-06-01T20:34:48.621Z,23.00
2019-06-01T20:37:18.101Z,22.90
2019-06-01T20:39:46.784Z,22.80
2019-06-01T20:42:25.579Z,22.70
2019-06-01T20:44:45.368Z,22.70
2019-06-01T20:47:14.737Z,22.60
2019-06-01T20:49:43.585Z,22.60
2019-06-01T20:52:12.696Z,22.50
2019-06-01T20:54:41.190Z,22.40
2019-06-01T20:57:09.630Z,22.40
2019-06-01T20:59:38.038Z,22.30
2019-06-01T21:02:07.021Z,22.20
2019-06-01T21:04:35.429Z,22.20
2019-06-01T21:07:03.922Z,22.10
2019-06-01T21:09:32.555Z,22.10
2019-06-01T21:12:01.037Z,22.00
2019-06-01T21:14:29.466Z,21.90
2019-06-01T21:16:57.911Z,21.80
2019-06-01T21:19:26.306Z,21.70
2019-06-01T21:21:54.710Z,21.60
2019-06-01T21:24:23.221Z,21.60
2019-06-01T21:26:51.645Z,21.50
2019-06-01T21:29:20.921Z,21.40
2019-06-01T21:31:49.403Z,21.30
2019-06-01T21:34:20.456Z,21.30
2019-06-01T21:36:47.932Z,21.30
2019-06-01T21:39:17.533Z,21.20
2019-06-01T21:41:46.215Z,21.20
2019-06-01T21:44:15.391Z,21.10
2019-06-01T21:46:45.054Z,21.00
2019-06-01T21:49:13.474Z,20.90
2019-06-01T21:51:41.870Z,20.90
2019-06-01T21:54:10.318Z,20.80
2019-06-01T21:56:38.714Z,20.80
2019-06-01T21:59:07.185Z,20.70
2019-06-01T22:01:35.578Z,20.70
2019-06-01T22:04:04.075Z,20.60
2019-06-01T22:06:32.579Z,20.50
2019-06-01T22:09:01.013Z,20.50
2019-06-01T22:11:29.429Z,20.40
2019-06-01T22:13:57.874Z,20.40
2019-06-01T22:16:26.303Z,20.30
2019-06-01T22:18:54.706Z,20.30
2019-06-01T22:21:23.784Z,20.30
2019-06-01T22:23:52.298Z,20.20
2019-06-01T22:26:21.887Z,20.20
2019-06-01T22:28:50.485Z,20.10
2019-06-01T22:31:20.107Z,20.10
2019-06-01T22:33:48.658Z,20.00
2019-06-01T22:36:17.094Z,20.00
2019-06-01T22:38:45.540Z,20.00
2019-06-01T22:41:13.959Z,19.90
2019-06-01T22:43:46.895Z,19.80
2019-06-01T22:46:12.526Z,19.70
2019-06-01T22:48:40.948Z,19.70
2019-06-01T22:51:09.576Z,19.60
2019-06-01T22:53:37.972Z,19.60
2019-06-01T22:56:06.381Z,19.60
2019-06-01T22:58:34.836Z,19.50
2019-06-01T23:01:03.232Z,19.50
2019-06-01T23:03:32.165Z,19.50
2019-06-01T23:06:00.890Z,19.50
2019-06-01T23:08:29.538Z,19.50
2019-06-01T23:10:57.991Z,19.40
2019-06-01T23:13:26.410Z,19.40
2019-06-01T23:15:54.869Z,19.40
2019-06-01T23:18:23.602Z,19.30
2019-06-01T23:20:52.127Z,19.20
2019-06-01T23:23:22.237Z,19.20
2019-06-01T23:25:50.985Z,19.20
2019-06-01T23:28:19.388Z,19.20
2019-06-01T23:30:47.788Z,19.10
2019-06-01T23:33:16.256Z,19.10
2019-06-01T23:35:44.651Z,19.10
2019-06-01T23:38:13.058Z,19.00
2019-06-01T23:40:41.510Z,19.00
2019-06-01T23:43:09.946Z,19.00
2019-06-01T23:45:38.347Z,19.00
2019-06-01T23:48:06.757Z,19.00
2019-06-01T23:50:35.200Z,18.90
2019-06-01T23:53:13.324Z,18.90
2019-06-01T23:55:34.210Z,18.80
2019-06-01T23:58:02.754Z,18.80
